sensor_id;sensor_type;location;lat;lon;timestamp;temperature;humidity
41262;DHT22;29629;52.532;13.352;2023-02-17T00:01:24;8.70;99.90
41262;DHT22;29629;52.532;13.352;2023-02-17T00:03:51;8.60;99.90
41262;DHT22;29629;52.532;13.352;2023-02-17T00:06:18;8.60;99.90
41262;DHT22;29629;52.532;13.352;2023-02-17T00:08:45;8.40;99.90
41262;DHT22;29629;52.532;13.352;2023-02-17T00:11:13;8.30;99.90
41262;DHT22;29629;52.532;13.352;2023-02-17T00:13:39;8.20;99.90
41262;DHT22;29629;52.532;13.352;2023-02-17T00:16:07;8.20;99.90
41262;DHT22;29629;52.532;13.352;2023-02-17T00:18:35;8.30;99.90
41262;DHT22;29629;52.532;13.352;2023-02-17T00:23:46;8.30;99.90
41262;DHT22;29629;52.532;13.352;2023-02-17T00:26:14;8.30;99.90
41262;DHT22;29629;52.532;13.352;2023-02-17T00:28:41;8.20;99.90
41262;DHT22;29629;52.532;13.352;2023-02-17T00:31:08;8.20;99.90
41262;DHT22;29629;52.532;13.352;2023-02-17T00:33:37;8.20;99.90
41262;DHT22;29629;52.532;13.352;2023-02-17T00:36:04;8.20;99.90
41262;DHT22;29629;52.532;13.352;2023-02-17T00:38:31;8.20;99.90
41262;DHT22;29629;52.532;13.352;2023-02-17T00:40:58;8.20;99.90
41262;DHT22;29629;52.532;13.352;2023-02-17T00:43:25;8.10;99.90
41262;DHT22;29629;52.532;13.352;2023-02-17T00:45:52;8.10;99.90
41262;DHT22;29629;52.532;13.352;2023-02-17T00:48:18;8.10;99.90
41262;DHT22;29629;52.532;13.352;2023-02-17T00:50:46;8.10;99.90
41262;DHT22;29629;52.532;13.352;2023-02-17T00:53:13;8.00;99.90
41262;DHT22;29629;52.532;13.352;2023-02-17T00:55:40;8.00;99.90
41262;DHT22;29629;52.532;13.352;2023-02-17T00:58:07;8.00;99.90
41262;DHT22;29629;52.532;13.352;2023-02-17T01:00:34;8.10;99.90
41262;DHT22;29629;52.532;13.352;2023-02-17T01:03:00;8.00;99.90
41262;DHT22;29629;52.532;13.352;2023-02-17T01:05:27;8.00;99.90
41262;DHT22;29629;52.532;13.352;2023-02-17T01:07:55;8.00;99.90
41262;DHT22;29629;52.532;13.352;2023-02-17T01:10:22;8.00;99.90
41262;DHT22;29629;52.532;13.352;2023-02-17T01:12:49;8.00;99.90
41262;DHT22;29629;52.532;13.352;2023-02-17T01:15:16;8.00;99.90
41262;DHT22;29629;52.532;13.352;2023-02-17T01:17:42;8.00;99.90
41262;DHT22;29629;52.532;13.352;2023-02-17T01:20:09;8.00;99.90
41262;DHT22;29629;52.532;13.352;2023-02-17T01:22:39;8.00;99.90
41262;DHT22;29629;52.532;13.352;2023-02-17T01:25:07;8.00;99.90
41262;DHT22;29629;52.532;13.352;2023-02-17T01:27:34;8.00;99.90
41262;DHT22;29629;52.532;13.352;2023-02-17T01:30:00;8.00;99.90
41262;DHT22;29629;52.532;13.352;2023-02-17T01:32:27;8.00;99.90
41262;DHT22;29629;52.532;13.352;2023-02-17T01:34:54;8.00;99.90
41262;DHT22;29629;52.532;13.352;2023-02-17T01:37:21;8.00;99.90
41262;DHT22;29629;52.532;13.352;2023-02-17T01:39:47;8.00;99.90
41262;DHT22;29629;52.532;13.352;2023-02-17T01:42:16;8.00;99.90
41262;DHT22;29629;52.532;13.352;2023-02-17T01:47:29;8.10;99.90
41262;DHT22;29629;52.532;13.352;2023-02-17T01:49:56;8.00;99.90
41262;DHT22;29629;52.532;13.352;2023-02-17T01:52:23;8.10;99.90
41262;DHT22;29629;52.532;13.352;2023-02-17T01:54:52;8.00;99.90
41262;DHT22;29629;52.532;13.352;2023-02-17T01:57:22;8.00;99.90
41262;DHT22;29629;52.532;13.352;2023-02-17T01:59:50;7.90;99.90
41262;DHT22;29629;52.532;13.352;2023-02-17T02:02:17;8.00;99.90
41262;DHT22;29629;52.532;13.352;2023-02-17T02:04:44;8.00;99.90
41262;DHT22;29629;52.532;13.352;2023-02-17T02:07:13;8.00;99.90
41262;DHT22;29629;52.532;13.352;2023-02-17T02:09:44;7.90;99.90
41262;DHT22;29629;52.532;13.352;2023-02-17T02:12:15;7.80;99.90
41262;DHT22;29629;52.532;13.352;2023-02-17T02:14:44;7.80;99.90
41262;DHT22;29629;52.532;13.352;2023-02-17T02:17:12;7.70;99.90
41262;DHT22;29629;52.532;13.352;2023-02-17T02:19:49;7.60;99.90
41262;DHT22;29629;52.532;13.352;2023-02-17T02:22:33;7.60;99.90
41262;DHT22;29629;52.532;13.352;2023-02-17T02:25:07;7.60;99.90
41262;DHT22;29629;52.532;13.352;2023-02-17T02:30:20;7.30;99.90
41262;DHT22;29629;52.532;13.352;2023-02-17T02:32:58;7.40;99.90
41262;DHT22;29629;52.532;13.352;2023-02-17T02:35:27;7.40;99.90
41262;DHT22;29629;52.532;13.352;2023-02-17T02:37:56;7.40;99.90
41262;DHT22;29629;52.532;13.352;2023-02-17T02:40:26;7.30;99.90
41262;DHT22;29629;52.532;13.352;2023-02-17T02:42:54;7.40;99.90
41262;DHT22;29629;52.532;13.352;2023-02-17T02:45:21;7.40;99.90
41262;DHT22;29629;52.532;13.352;2023-02-17T02:47:49;7.40;99.90
41262;DHT22;29629;52.532;13.352;2023-02-17T02:50:18;7.40;99.90
41262;DHT22;29629;52.532;13.352;2023-02-17T02:52:47;7.40;99.90
41262;DHT22;29629;52.532;13.352;2023-02-17T02:55:18;7.40;99.90
41262;DHT22;29629;52.532;13.352;2023-02-17T02:57:48;7.50;99.90
41262;DHT22;29629;52.532;13.352;2023-02-17T03:00:18;7.40;99.90
41262;DHT22;29629;52.532;13.352;2023-02-17T03:02:48;7.30;99.90
41262;DHT22;29629;52.532;13.352;2023-02-17T03:05:22;7.40;99.90
41262;DHT22;29629;52.532;13.352;2023-02-17T03:07:52;7.40;99.90
41262;DHT22;29629;52.532;13.352;2023-02-17T03:10:20;7.30;99.90
41262;DHT22;29629;52.532;13.352;2023-02-17T03:12:47;7.30;99.90
41262;DHT22;29629;52.532;13.352;2023-02-17T03:15:15;7.30;99.90
41262;DHT22;29629;52.532;13.352;2023-02-17T03:17:42;7.30;99.90
41262;DHT22;29629;52.532;13.352;2023-02-17T03:20:10;7.30;99.90
41262;DHT22;29629;52.532;13.352;2023-02-17T03:22:40;7.40;99.90
41262;DHT22;29629;52.532;13.352;2023-02-17T03:25:07;7.30;99.90
41262;DHT22;29629;52.532;13.352;2023-02-17T03:27:34;7.30;99.90
41262;DHT22;29629;52.532;13.352;2023-02-17T03:30:01;7.30;99.90
41262;DHT22;29629;52.532;13.352;2023-02-17T03:32:27;7.40;99.90
41262;DHT22;29629;52.532;13.352;2023-02-17T03:34:54;7.40;99.90
41262;DHT22;29629;52.532;13.352;2023-02-17T03:37:21;7.40;99.90
41262;DHT22;29629;52.532;13.352;2023-02-17T03:39:49;7.50;99.90
41262;DHT22;29629;52.532;13.352;2023-02-17T03:42:15;7.50;99.90
41262;DHT22;29629;52.532;13.352;2023-02-17T03:44:42;7.50;99.90
41262;DHT22;29629;52.532;13.352;2023-02-17T03:47:09;7.50;99.90
41262;DHT22;29629;52.532;13.352;2023-02-17T03:49:35;7.40;99.90
41262;DHT22;29629;52.532;13.352;2023-02-17T03:52:02;7.50;99.90
41262;DHT22;29629;52.532;13.352;2023-02-17T03:54:29;7.40;99.90
41262;DHT22;29629;52.532;13.352;2023-02-17T03:56:57;7.40;99.90
41262;DHT22;29629;52.532;13.352;2023-02-17T03:59:25;7.50;99.90
41262;DHT22;29629;52.532;13.352;2023-02-17T04:01:52;7.50;99.90
41262;DHT22;29629;52.532;13.352;2023-02-17T04:04:19;7.50;99.90
41262;DHT22;29629;52.532;13.352;2023-02-17T04:06:45;7.60;99.90
41262;DHT22;29629;52.532;13.352;2023-02-17T04:09:12;7.50;99.90
41262;DHT22;29629;52.532;13.352;2023-02-17T04:11:39;7.60;99.90
41262;DHT22;29629;52.532;13.352;2023-02-17T04:14:07;7.60;99.90
41262;DHT22;29629;52.532;13.352;2023-02-17T04:16:34;7.60;99.90
41262;DHT22;29629;52.532;13.352;2023-02-17T04:19:03;7.70;99.90
41262;DHT22;29629;52.532;13.352;2023-02-17T04:21:30;7.80;99.90
41262;DHT22;29629;52.532;13.352;2023-02-17T04:23:58;7.70;99.90
41262;DHT22;29629;52.532;13.352;2023-02-17T04:26:25;7.80;99.90
41262;DHT22;29629;52.532;13.352;2023-02-17T04:28:51;7.70;99.90
41262;DHT22;29629;52.532;13.352;2023-02-17T04:31:19;7.70;99.90
41262;DHT22;29629;52.532;13.352;2023-02-17T04:33:46;7.80;99.90
41262;DHT22;29629;52.532;13.352;2023-02-17T04:36:13;7.70;99.90
41262;DHT22;29629;52.532;13.352;2023-02-17T04:38:40;7.70;99.90
41262;DHT22;29629;52.532;13.352;2023-02-17T04:41:06;7.70;99.90
41262;DHT22;29629;52.532;13.352;2023-02-17T04:43:33;7.70;99.90
41262;DHT22;29629;52.532;13.352;2023-02-17T04:46:00;7.70;99.90
41262;DHT22;29629;52.532;13.352;2023-02-17T04:48:28;7.80;99.90
41262;DHT22;29629;52.532;13.352;2023-02-17T04:50:54;7.80;99.90
41262;DHT22;29629;52.532;13.352;2023-02-17T04:53:21;7.80;99.90
41262;DHT22;29629;52.532;13.352;2023-02-17T04:55:48;7.80;99.90
41262;DHT22;29629;52.532;13.352;2023-02-17T04:58:16;7.90;99.90
41262;DHT22;29629;52.532;13.352;2023-02-17T05:00:42;7.90;99.90
41262;DHT22;29629;52.532;13.352;2023-02-17T05:03:09;7.90;99.90
41262;DHT22;29629;52.532;13.352;2023-02-17T05:05:37;7.80;99.90
41262;DHT22;29629;52.532;13.352;2023-02-17T05:08:04;7.80;99.90
41262;DHT22;29629;52.532;13.352;2023-02-17T05:10:31;7.90;99.90
41262;DHT22;29629;52.532;13.352;2023-02-17T05:12:57;7.90;99.90
41262;DHT22;29629;52.532;13.352;2023-02-17T05:15:24;7.80;99.90
41262;DHT22;29629;52.532;13.352;2023-02-17T05:17:51;7.90;99.90
41262;DHT22;29629;52.532;13.352;2023-02-17T05:20:17;7.90;99.90
41262;DHT22;29629;52.532;13.352;2023-02-17T05:22:46;7.90;99.90
41262;DHT22;29629;52.532;13.352;2023-02-17T05:25:12;7.90;99.90
41262;DHT22;29629;52.532;13.352;2023-02-17T05:27:39;7.90;99.90
41262;DHT22;29629;52.532;13.352;2023-02-17T05:30:06;7.80;99.90
41262;DHT22;29629;52.532;13.352;2023-02-17T05:32:33;7.80;99.90
41262;DHT22;29629;52.532;13.352;2023-02-17T05:35:00;7.90;99.90
41262;DHT22;29629;52.532;13.352;2023-02-17T05:37:26;7.90;99.90
41262;DHT22;29629;52.532;13.352;2023-02-17T05:39:54;8.00;99.90
41262;DHT22;29629;52.532;13.352;2023-02-17T05:42:21;7.90;99.90
41262;DHT22;29629;52.532;13.352;2023-02-17T05:44:48;7.90;99.90
41262;DHT22;29629;52.532;13.352;2023-02-17T05:47:14;8.00;99.90
41262;DHT22;29629;52.532;13.352;2023-02-17T05:49:41;8.00;99.90
41262;DHT22;29629;52.532;13.352;2023-02-17T05:52:08;8.00;99.90
41262;DHT22;29629;52.532;13.352;2023-02-17T05:54:34;8.00;99.90
41262;DHT22;29629;52.532;13.352;2023-02-17T05:57:03;8.00;99.90
41262;DHT22;29629;52.532;13.352;2023-02-17T05:59:29;8.00;99.90
41262;DHT22;29629;52.532;13.352;2023-02-17T06:01:56;8.00;99.90
41262;DHT22;29629;52.532;13.352;2023-02-17T06:04:23;8.10;99.90
41262;DHT22;29629;52.532;13.352;2023-02-17T06:06:49;8.00;99.90
41262;DHT22;29629;52.532;13.352;2023-02-17T06:09:16;8.00;99.90
41262;DHT22;29629;52.532;13.352;2023-02-17T06:11:43;8.00;99.90
41262;DHT22;29629;52.532;13.352;2023-02-17T06:14:11;8.00;99.90
41262;DHT22;29629;52.532;13.352;2023-02-17T06:16:38;8.00;99.90
41262;DHT22;29629;52.532;13.352;2023-02-17T06:19:04;8.10;99.90
41262;DHT22;29629;52.532;13.352;2023-02-17T06:21:31;8.10;99.90
41262;DHT22;29629;52.532;13.352;2023-02-17T06:23:58;8.10;99.90
41262;DHT22;29629;52.532;13.352;2023-02-17T06:26:24;8.10;99.90
41262;DHT22;29629;52.532;13.352;2023-02-17T06:28:51;8.10;99.90
41262;DHT22;29629;52.532;13.352;2023-02-17T06:31:19;8.10;99.90
41262;DHT22;29629;52.532;13.352;2023-02-17T06:33:46;8.20;99.90
41262;DHT22;29629;52.532;13.352;2023-02-17T06:36:13;8.20;99.90
41262;DHT22;29629;52.532;13.352;2023-02-17T06:38:40;8.20;99.90
41262;DHT22;29629;52.532;13.352;2023-02-17T06:41:06;8.20;99.90
41262;DHT22;29629;52.532;13.352;2023-02-17T06:43:33;8.30;99.90
41262;DHT22;29629;52.532;13.352;2023-02-17T06:46:00;8.30;99.90
41262;DHT22;29629;52.532;13.352;2023-02-17T06:48:28;8.30;99.90
41262;DHT22;29629;52.532;13.352;2023-02-17T06:50:57;8.40;99.90
41262;DHT22;29629;52.532;13.352;2023-02-17T06:53:24;8.40;99.90
41262;DHT22;29629;52.532;13.352;2023-02-17T06:55:51;8.40;99.90
41262;DHT22;29629;52.532;13.352;2023-02-17T06:58:17;8.40;99.90
41262;DHT22;29629;52.532;13.352;2023-02-17T07:00:44;8.40;99.90
41262;DHT22;29629;52.532;13.352;2023-02-17T07:03:11;8.40;99.90
41262;DHT22;29629;52.532;13.352;2023-02-17T07:05:39;8.40;99.90
41262;DHT22;29629;52.532;13.352;2023-02-17T07:08:05;8.40;99.90
41262;DHT22;29629;52.532;13.352;2023-02-17T07:10:32;8.50;99.90
41262;DHT22;29629;52.532;13.352;2023-02-17T07:12:59;8.50;99.90
41262;DHT22;29629;52.532;13.352;2023-02-17T07:15:28;8.60;99.90
41262;DHT22;29629;52.532;13.352;2023-02-17T07:17:55;8.50;99.90
41262;DHT22;29629;52.532;13.352;2023-02-17T07:20:22;8.60;99.90
41262;DHT22;29629;52.532;13.352;2023-02-17T07:22:50;8.60;99.90
41262;DHT22;29629;52.532;13.352;2023-02-17T07:25:16;8.60;99.90
41262;DHT22;29629;52.532;13.352;2023-02-17T07:27:43;8.70;99.90
41262;DHT22;29629;52.532;13.352;2023-02-17T07:30:10;8.70;99.90
41262;DHT22;29629;52.532;13.352;2023-02-17T07:32:37;8.70;99.90
41262;DHT22;29629;52.532;13.352;2023-02-17T07:35:04;8.70;99.90
41262;DHT22;29629;52.532;13.352;2023-02-17T07:37:31;8.80;99.90
41262;DHT22;29629;52.532;13.352;2023-02-17T07:39:59;8.80;99.90
41262;DHT22;29629;52.532;13.352;2023-02-17T07:42:26;8.90;99.90
41262;DHT22;29629;52.532;13.352;2023-02-17T07:44:53;8.90;99.90
41262;DHT22;29629;52.532;13.352;2023-02-17T07:47:20;8.90;99.90
41262;DHT22;29629;52.532;13.352;2023-02-17T07:49:46;8.90;99.90
41262;DHT22;29629;52.532;13.352;2023-02-17T07:52:14;9.00;99.90
41262;DHT22;29629;52.532;13.352;2023-02-17T07:54:41;9.00;99.90
41262;DHT22;29629;52.532;13.352;2023-02-17T07:57:09;9.00;99.90
41262;DHT22;29629;52.532;13.352;2023-02-17T07:59:36;9.10;99.90
41262;DHT22;29629;52.532;13.352;2023-02-17T08:02:03;9.10;99.90
41262;DHT22;29629;52.532;13.352;2023-02-17T08:04:29;9.20;99.90
41262;DHT22;29629;52.532;13.352;2023-02-17T08:06:57;9.20;99.90
41262;DHT22;29629;52.532;13.352;2023-02-17T08:09:23;9.20;99.90
41262;DHT22;29629;52.532;13.352;2023-02-17T08:12:09;9.20;99.90
41262;DHT22;29629;52.532;13.352;2023-02-17T08:14:57;9.30;99.90
41262;DHT22;29629;52.532;13.352;2023-02-17T08:17:24;9.30;99.90
41262;DHT22;29629;52.532;13.352;2023-02-17T08:19:51;9.30;99.90
41262;DHT22;29629;52.532;13.352;2023-02-17T08:22:17;9.40;99.90
41262;DHT22;29629;52.532;13.352;2023-02-17T08:24:44;9.40;99.90
41262;DHT22;29629;52.532;13.352;2023-02-17T08:27:12;9.40;99.90
41262;DHT22;29629;52.532;13.352;2023-02-17T08:29:39;9.50;99.90
41262;DHT22;29629;52.532;13.352;2023-02-17T08:32:06;9.40;99.90
41262;DHT22;29629;52.532;13.352;2023-02-17T08:34:33;9.50;99.90
41262;DHT22;29629;52.532;13.352;2023-02-17T08:37:00;9.40;99.90
41262;DHT22;29629;52.532;13.352;2023-02-17T08:39:27;9.40;99.90
41262;DHT22;29629;52.532;13.352;2023-02-17T08:41:54;9.40;99.90
41262;DHT22;29629;52.532;13.352;2023-02-17T08:44:22;9.40;99.90
41262;DHT22;29629;52.532;13.352;2023-02-17T08:46:50;9.40;99.90
41262;DHT22;29629;52.532;13.352;2023-02-17T08:49:18;9.40;99.90
41262;DHT22;29629;52.532;13.352;2023-02-17T08:51:45;9.40;99.90
41262;DHT22;29629;52.532;13.352;2023-02-17T08:54:12;9.40;99.90
41262;DHT22;29629;52.532;13.352;2023-02-17T08:56:39;9.40;99.90
41262;DHT22;29629;52.532;13.352;2023-02-17T08:59:07;9.40;99.90
41262;DHT22;29629;52.532;13.352;2023-02-17T09:01:35;9.40;99.90
41262;DHT22;29629;52.532;13.352;2023-02-17T09:04:02;9.40;99.90
41262;DHT22;29629;52.532;13.352;2023-02-17T09:06:33;9.40;99.90
41262;DHT22;29629;52.532;13.352;2023-02-17T09:09:00;9.40;99.90
41262;DHT22;29629;52.532;13.352;2023-02-17T09:11:27;9.40;99.90
41262;DHT22;29629;52.532;13.352;2023-02-17T09:13:54;9.40;99.90
41262;DHT22;29629;52.532;13.352;2023-02-17T09:16:20;9.40;99.90
41262;DHT22;29629;52.532;13.352;2023-02-17T09:18:50;9.40;99.90
41262;DHT22;29629;52.532;13.352;2023-02-17T09:21:17;9.30;99.90
41262;DHT22;29629;52.532;13.352;2023-02-17T09:23:44;9.40;99.90
41262;DHT22;29629;52.532;13.352;2023-02-17T09:26:12;9.40;99.90
41262;DHT22;29629;52.532;13.352;2023-02-17T09:28:39;9.30;99.90
41262;DHT22;29629;52.532;13.352;2023-02-17T09:31:09;9.30;99.90
41262;DHT22;29629;52.532;13.352;2023-02-17T09:33:36;9.30;99.90
41262;DHT22;29629;52.532;13.352;2023-02-17T09:36:04;9.30;99.90
41262;DHT22;29629;52.532;13.352;2023-02-17T09:38:31;9.30;99.90
41262;DHT22;29629;52.532;13.352;2023-02-17T09:40:58;9.30;99.90
41262;DHT22;29629;52.532;13.352;2023-02-17T09:43:27;9.30;99.90
41262;DHT22;29629;52.532;13.352;2023-02-17T09:45:55;9.30;99.90
41262;DHT22;29629;52.532;13.352;2023-02-17T09:48:26;9.30;99.90
41262;DHT22;29629;52.532;13.352;2023-02-17T09:50:55;9.30;99.90
41262;DHT22;29629;52.532;13.352;2023-02-17T09:53:26;9.40;99.90
41262;DHT22;29629;52.532;13.352;2023-02-17T09:55:56;9.30;99.90
41262;DHT22;29629;52.532;13.352;2023-02-17T09:58:24;9.30;99.90
41262;DHT22;29629;52.532;13.352;2023-02-17T10:00:53;9.30;99.90
41262;DHT22;29629;52.532;13.352;2023-02-17T10:03:22;9.30;99.90
41262;DHT22;29629;52.532;13.352;2023-02-17T10:05:50;9.30;99.90
41262;DHT22;29629;52.532;13.352;2023-02-17T10:08:18;9.30;99.90
41262;DHT22;29629;52.532;13.352;2023-02-17T10:10:49;9.30;99.90
41262;DHT22;29629;52.532;13.352;2023-02-17T10:13:18;9.30;99.90
41262;DHT22;29629;52.532;13.352;2023-02-17T10:15:47;9.30;99.90
41262;DHT22;29629;52.532;13.352;2023-02-17T10:18:18;9.30;99.90
41262;DHT22;29629;52.532;13.352;2023-02-17T10:20:46;9.30;99.90
41262;DHT22;29629;52.532;13.352;2023-02-17T10:23:16;9.20;99.90
41262;DHT22;29629;52.532;13.352;2023-02-17T10:25:50;9.20;99.90
41262;DHT22;29629;52.532;13.352;2023-02-17T10:28:21;9.20;99.90
41262;DHT22;29629;52.532;13.352;2023-02-17T10:30:51;9.30;99.90
41262;DHT22;29629;52.532;13.352;2023-02-17T10:33:22;9.30;99.90
41262;DHT22;29629;52.532;13.352;2023-02-17T10:35:51;9.40;99.90
41262;DHT22;29629;52.532;13.352;2023-02-17T10:38:25;9.40;99.90
41262;DHT22;29629;52.532;13.352;2023-02-17T10:40:57;9.50;99.90
41262;DHT22;29629;52.532;13.352;2023-02-17T10:43:26;9.50;99.90
41262;DHT22;29629;52.532;13.352;2023-02-17T10:45:54;9.60;99.90
41262;DHT22;29629;52.532;13.352;2023-02-17T10:48:22;9.60;99.90
41262;DHT22;29629;52.532;13.352;2023-02-17T10:50:50;9.60;99.90
41262;DHT22;29629;52.532;13.352;2023-02-17T10:53:17;9.70;99.90
41262;DHT22;29629;52.532;13.352;2023-02-17T10:55:52;9.70;99.90
41262;DHT22;29629;52.532;13.352;2023-02-17T10:58:23;9.80;99.90
41262;DHT22;29629;52.532;13.352;2023-02-17T11:00:51;9.80;99.90
41262;DHT22;29629;52.532;13.352;2023-02-17T11:03:21;9.80;99.90
41262;DHT22;29629;52.532;13.352;2023-02-17T11:05:51;9.80;99.90
41262;DHT22;29629;52.532;13.352;2023-02-17T11:08:22;9.80;99.90
41262;DHT22;29629;52.532;13.352;2023-02-17T11:10:57;9.80;99.90
41262;DHT22;29629;52.532;13.352;2023-02-17T11:13:29;9.80;99.90
41262;DHT22;29629;52.532;13.352;2023-02-17T11:15:57;9.90;99.90
41262;DHT22;29629;52.532;13.352;2023-02-17T11:18:25;10.00;99.90
41262;DHT22;29629;52.532;13.352;2023-02-17T11:20:58;9.90;99.90
41262;DHT22;29629;52.532;13.352;2023-02-17T11:23:25;10.00;99.90
41262;DHT22;29629;52.532;13.352;2023-02-17T11:25:56;10.00;99.90
41262;DHT22;29629;52.532;13.352;2023-02-17T11:28:23;10.00;99.90
41262;DHT22;29629;52.532;13.352;2023-02-17T11:30:53;10.10;99.90
41262;DHT22;29629;52.532;13.352;2023-02-17T11:33:21;10.10;99.90
41262;DHT22;29629;52.532;13.352;2023-02-17T11:35:49;10.10;99.90
41262;DHT22;29629;52.532;13.352;2023-02-17T11:38:17;10.20;99.90
41262;DHT22;29629;52.532;13.352;2023-02-17T11:40:51;10.20;99.90
41262;DHT22;29629;52.532;13.352;2023-02-17T11:43:18;10.30;99.90
41262;DHT22;29629;52.532;13.352;2023-02-17T11:45:47;10.30;99.90
41262;DHT22;29629;52.532;13.352;2023-02-17T11:48:29;10.40;99.90
41262;DHT22;29629;52.532;13.352;2023-02-17T11:50:59;10.40;99.90
41262;DHT22;29629;52.532;13.352;2023-02-17T11:53:31;10.40;99.90
41262;DHT22;29629;52.532;13.352;2023-02-17T11:56:05;10.50;99.90
41262;DHT22;29629;52.532;13.352;2023-02-17T11:58:44;10.50;99.90
41262;DHT22;29629;52.532;13.352;2023-02-17T12:01:16;10.50;99.90
41262;DHT22;29629;52.532;13.352;2023-02-17T12:03:56;10.60;99.90
41262;DHT22;29629;52.532;13.352;2023-02-17T12:06:30;10.60;99.90
41262;DHT22;29629;52.532;13.352;2023-02-17T12:09:02;10.70;99.90
41262;DHT22;29629;52.532;13.352;2023-02-17T12:11:33;10.70;99.90
41262;DHT22;29629;52.532;13.352;2023-02-17T12:16:54;10.80;99.90
41262;DHT22;29629;52.532;13.352;2023-02-17T12:19:27;10.80;99.90
41262;DHT22;29629;52.532;13.352;2023-02-17T12:21:59;10.90;99.90
41262;DHT22;29629;52.532;13.352;2023-02-17T12:24:37;11.00;99.90
41262;DHT22;29629;52.532;13.352;2023-02-17T12:27:09;11.00;99.90
41262;DHT22;29629;52.532;13.352;2023-02-17T12:29:45;11.10;99.90
41262;DHT22;29629;52.532;13.352;2023-02-17T12:32:19;11.10;99.90
41262;DHT22;29629;52.532;13.352;2023-02-17T12:34:52;11.20;99.90
41262;DHT22;29629;52.532;13.352;2023-02-17T12:37:24;11.20;99.90
41262;DHT22;29629;52.532;13.352;2023-02-17T12:39:52;11.30;99.90
41262;DHT22;29629;52.532;13.352;2023-02-17T12:42:21;11.40;99.90
41262;DHT22;29629;52.532;13.352;2023-02-17T12:44:50;11.40;99.90
41262;DHT22;29629;52.532;13.352;2023-02-17T12:47:18;11.40;99.90
41262;DHT22;29629;52.532;13.352;2023-02-17T12:49:47;11.40;99.90
41262;DHT22;29629;52.532;13.352;2023-02-17T12:52:17;11.60;99.90
41262;DHT22;29629;52.532;13.352;2023-02-17T12:54:46;11.60;99.90
41262;DHT22;29629;52.532;13.352;2023-02-17T12:57:15;11.60;99.90
41262;DHT22;29629;52.532;13.352;2023-02-17T12:59:43;11.70;99.90
41262;DHT22;29629;52.532;13.352;2023-02-17T13:02:11;11.70;99.90
41262;DHT22;29629;52.532;13.352;2023-02-17T13:04:38;11.70;99.90
41262;DHT22;29629;52.532;13.352;2023-02-17T13:07:08;11.70;99.90
41262;DHT22;29629;52.532;13.352;2023-02-17T13:09:41;11.70;99.90
41262;DHT22;29629;52.532;13.352;2023-02-17T13:12:13;11.70;99.90
41262;DHT22;29629;52.532;13.352;2023-02-17T13:14:42;11.80;99.90
41262;DHT22;29629;52.532;13.352;2023-02-17T13:17:22;11.80;99.90
41262;DHT22;29629;52.532;13.352;2023-02-17T13:19:58;11.80;99.90
41262;DHT22;29629;52.532;13.352;2023-02-17T13:22:25;11.80;99.90
41262;DHT22;29629;52.532;13.352;2023-02-17T13:24:53;11.90;99.90
41262;DHT22;29629;52.532;13.352;2023-02-17T13:27:21;11.90;99.90
41262;DHT22;29629;52.532;13.352;2023-02-17T13:29:59;12.00;99.90
41262;DHT22;29629;52.532;13.352;2023-02-17T13:32:26;12.00;99.90
41262;DHT22;29629;52.532;13.352;2023-02-17T13:34:58;12.00;99.90
41262;DHT22;29629;52.532;13.352;2023-02-17T13:37:36;12.10;99.90
41262;DHT22;29629;52.532;13.352;2023-02-17T13:42:46;12.20;99.90
41262;DHT22;29629;52.532;13.352;2023-02-17T13:45:16;12.20;99.90
41262;DHT22;29629;52.532;13.352;2023-02-17T13:47:44;12.20;99.90
41262;DHT22;29629;52.532;13.352;2023-02-17T13:52:53;12.30;99.90
41262;DHT22;29629;52.532;13.352;2023-02-17T13:55:20;12.30;99.90
41262;DHT22;29629;52.532;13.352;2023-02-17T13:57:52;12.30;99.90
41262;DHT22;29629;52.532;13.352;2023-02-17T14:00:19;12.40;99.90
41262;DHT22;29629;52.532;13.352;2023-02-17T14:02:47;12.30;99.90
41262;DHT22;29629;52.532;13.352;2023-02-17T14:05:16;12.40;99.90
41262;DHT22;29629;52.532;13.352;2023-02-17T14:07:43;12.40;99.90
41262;DHT22;29629;52.532;13.352;2023-02-17T14:10:15;12.40;99.90
41262;DHT22;29629;52.532;13.352;2023-02-17T14:12:42;12.40;99.90
41262;DHT22;29629;52.532;13.352;2023-02-17T14:15:14;12.40;99.90
41262;DHT22;29629;52.532;13.352;2023-02-17T14:17:41;12.40;99.90
41262;DHT22;29629;52.532;13.352;2023-02-17T14:20:22;12.50;99.90
41262;DHT22;29629;52.532;13.352;2023-02-17T14:22:57;12.50;99.90
41262;DHT22;29629;52.532;13.352;2023-02-17T14:25:25;12.50;99.90
41262;DHT22;29629;52.532;13.352;2023-02-17T14:27:52;12.50;99.90
41262;DHT22;29629;52.532;13.352;2023-02-17T14:30:28;12.50;99.90
41262;DHT22;29629;52.532;13.352;2023-02-17T14:33:00;12.50;99.90
41262;DHT22;29629;52.532;13.352;2023-02-17T14:35:26;12.50;99.90
41262;DHT22;29629;52.532;13.352;2023-02-17T14:37:53;12.50;99.90
41262;DHT22;29629;52.532;13.352;2023-02-17T14:40:21;12.40;99.90
41262;DHT22;29629;52.532;13.352;2023-02-17T14:42:48;12.40;99.90
41262;DHT22;29629;52.532;13.352;2023-02-17T14:45:17;12.50;99.90
41262;DHT22;29629;52.532;13.352;2023-02-17T14:47:46;12.40;99.90
41262;DHT22;29629;52.532;13.352;2023-02-17T14:50:12;12.40;99.90
41262;DHT22;29629;52.532;13.352;2023-02-17T14:52:44;12.30;99.90
41262;DHT22;29629;52.532;13.352;2023-02-17T14:55:12;12.10;99.90
41262;DHT22;29629;52.532;13.352;2023-02-17T14:57:40;12.00;99.90
41262;DHT22;29629;52.532;13.352;2023-02-17T15:00:09;11.80;99.90
41262;DHT22;29629;52.532;13.352;2023-02-17T15:02:36;11.70;99.90
41262;DHT22;29629;52.532;13.352;2023-02-17T15:05:05;11.70;99.90
41262;DHT22;29629;52.532;13.352;2023-02-17T15:07:32;11.60;99.90
41262;DHT22;29629;52.532;13.352;2023-02-17T15:09:59;11.70;99.90
41262;DHT22;29629;52.532;13.352;2023-02-17T15:12:26;11.60;99.90
41262;DHT22;29629;52.532;13.352;2023-02-17T15:14:52;11.60;99.90
41262;DHT22;29629;52.532;13.352;2023-02-17T15:17:19;11.60;99.90
41262;DHT22;29629;52.532;13.352;2023-02-17T15:19:46;11.60;99.90
41262;DHT22;29629;52.532;13.352;2023-02-17T15:22:15;11.60;99.90
41262;DHT22;29629;52.532;13.352;2023-02-17T15:24:41;11.60;99.90
41262;DHT22;29629;52.532;13.352;2023-02-17T15:27:09;11.60;99.90
41262;DHT22;29629;52.532;13.352;2023-02-17T15:29:37;11.60;99.90
41262;DHT22;29629;52.532;13.352;2023-02-17T15:32:09;11.50;99.90
41262;DHT22;29629;52.532;13.352;2023-02-17T15:34:37;11.50;99.90
41262;DHT22;29629;52.532;13.352;2023-02-17T15:37:04;11.50;99.90
41262;DHT22;29629;52.532;13.352;2023-02-17T15:39:32;11.50;99.90
41262;DHT22;29629;52.532;13.352;2023-02-17T15:41:59;11.50;99.90
41262;DHT22;29629;52.532;13.352;2023-02-17T15:44:30;11.50;99.90
41262;DHT22;29629;52.532;13.352;2023-02-17T15:47:00;11.50;99.90
41262;DHT22;29629;52.532;13.352;2023-02-17T15:49:27;11.40;99.90
41262;DHT22;29629;52.532;13.352;2023-02-17T15:51:54;11.40;99.90